Cedar Creek (Missouri), Pleasant View (06919500)

StateMissouriLatestGood (316 cfs)
RiverCedar CreekRatingObservedEstimated
Updated2024-06-14 22:30 (1 hour ago)Flood - The river is flooding. Obstacles can be treacherous or deadly. The river should be avoided at this stage for casual trips and definitely for the inexperienced. Trips should be attempted only with protective gear and equipment.Flood(none)1792
Discharge316 cfs (median: 80 cfs)High - The river is high and potentially dangerous, especially for the young and / or inexperienced. Normal stream obstacles are sometimes difficult to navigate. Extended distances can be attempted, but canoe travel may not be advisable.High(none)454
Height5.22 feetGood - Conditions are ideal for a canoe or kayak. Boats typically will drag on fewer than one-quarter of riffles, if at all, and portages are unnecessary or rare. Normal float lengths can be attempted without a problem.Good(none)160
TrendFalling (falling over 24 hours)Low - River is low but can still be floated. Some riffles are okay but most come with significant dragging and might need a portage. Float lengths should be reduced to accommodate low flow, dragging, and portages.Low(none)83
USGSExternal icon USGS Site (External icon Duck Duck Go Maps)Poor - River is too low to float comfortably. Most or all riffles will drag or must be portaged and some obstacles (such as slick shelf rock) cause undue problems. Avoid the river at this stage for casual paddling trips.Poor(none)6

Trending Data

Plot Image

Trips for Cedar Creek (Missouri), Pleasant View (06919500)

DateStartEndDistanceConditionDischargeHeightFishingDetails

A total of 0 rows are displayed.

Condition Descriptions

Fishing Conditions

Fish Species

Notes

Classic Trip List

The classic River Trips application is still available for use. It is updated with the new system using a data retrofit. It is no longer maintained. The original River Trips application is no longer updated (as of 1 Dec 2016) but can be checked for errors or for the condition of the data before it was converted to the new system.

Gauge Data Table

ObservationHeightDischargeMaximum
Discharge
Minimum
Discharge
Mean
Discharge
P05P10P20P25P50
(Median)
P75P80P90P95
2024-06-14 22:30 5.22 316 9110 (2007) 2 (1953) 566 3 8 23 33 76 338 413 665 4050
2024-06-14 21:30 5.23 319 9110 (2007) 2 (1953) 566 3 8 23 33 76 338 413 665 4050
2024-06-14 20:30 5.24 321 9110 (2007) 2 (1953) 566 3 8 23 33 76 338 413 665 4050
2024-06-14 19:30 5.25 323 9110 (2007) 2 (1953) 566 3 8 23 33 76 338 413 665 4050
2024-06-14 18:30 5.26 326 9110 (2007) 2 (1953) 566 3 8 23 33 76 338 413 665 4050
2024-06-14 17:30 5.27 328 9110 (2007) 2 (1953) 566 3 8 23 33 76 338 413 665 4050
2024-06-14 16:30 5.28 330 9110 (2007) 2 (1953) 566 3 8 23 33 76 338 413 665 4050
2024-06-14 15:30 5.30 335 9110 (2007) 2 (1953) 566 3 8 23 33 76 338 413 665 4050
2024-06-14 14:30 5.31 338 9110 (2007) 2 (1953) 566 3 8 23 33 76 338 413 665 4050
2024-06-14 13:30 5.32 340 9110 (2007) 2 (1953) 566 3 8 23 33 76 338 413 665 4050
2024-06-14 12:30 5.33 342 9110 (2007) 2 (1953) 566 3 8 23 33 76 338 413 665 4050
2024-06-14 11:30 5.38 355 9110 (2007) 2 (1953) 566 3 8 23 33 76 338 413 665 4050
2024-06-14 10:30 5.36 350 9110 (2007) 2 (1953) 566 3 8 23 33 76 338 413 665 4050
2024-06-14 09:30 5.38 355 9110 (2007) 2 (1953) 566 3 8 23 33 76 338 413 665 4050
2024-06-14 08:30 5.37 352 9110 (2007) 2 (1953) 566 3 8 23 33 76 338 413 665 4050
2024-06-14 07:30 5.38 355 9110 (2007) 2 (1953) 566 3 8 23 33 76 338 413 665 4050
2024-06-14 06:30 5.40 360 9110 (2007) 2 (1953) 566 3 8 23 33 76 338 413 665 4050
2024-06-14 05:30 5.42 365 9110 (2007) 2 (1953) 566 3 8 23 33 76 338 413 665 4050
2024-06-14 04:30 5.44 370 9110 (2007) 2 (1953) 566 3 8 23 33 76 338 413 665 4050
2024-06-14 03:30 5.46 375 9110 (2007) 2 (1953) 566 3 8 23 33 76 338 413 665 4050
2024-06-14 02:30 5.48 380 9110 (2007) 2 (1953) 566 3 8 23 33 76 338 413 665 4050
2024-06-14 01:30 5.50 385 9110 (2007) 2 (1953) 566 3 8 23 33 76 338 413 665 4050
2024-06-14 00:30 5.50 385 9110 (2007) 2 (1953) 566 3 8 23 33 76 338 413 665 4050
2024-06-13 23:30 5.52 390 9110 (2007) 2 (1953) 566 3 8 23 33 76 338 413 665 4050
2024-06-13 22:30 5.55 398 6940 (2007) 2 (1953) 398 4 6 20 31 86 320 400 900 1660
2024-06-13 21:30 5.57 403 6940 (2007) 2 (1953) 398 4 6 20 31 86 320 400 900 1660
2024-06-13 20:30 5.60 411 6940 (2007) 2 (1953) 398 4 6 20 31 86 320 400 900 1660
2024-06-13 19:30 5.60 411 6940 (2007) 2 (1953) 398 4 6 20 31 86 320 400 900 1660
2024-06-13 18:30 5.62 417 6940 (2007) 2 (1953) 398 4 6 20 31 86 320 400 900 1660
2024-06-13 17:30 5.65 425 6940 (2007) 2 (1953) 398 4 6 20 31 86 320 400 900 1660
2024-06-13 16:30 5.67 430 6940 (2007) 2 (1953) 398 4 6 20 31 86 320 400 900 1660
2024-06-13 15:30 5.71 442 6940 (2007) 2 (1953) 398 4 6 20 31 86 320 400 900 1660
2024-06-13 14:30 5.72 444 6940 (2007) 2 (1953) 398 4 6 20 31 86 320 400 900 1660
2024-06-13 13:30 5.75 453 6940 (2007) 2 (1953) 398 4 6 20 31 86 320 400 900 1660
2024-06-13 12:30 5.77 458 6940 (2007) 2 (1953) 398 4 6 20 31 86 320 400 900 1660
2024-06-13 11:30 5.78 461 6940 (2007) 2 (1953) 398 4 6 20 31 86 320 400 900 1660
2024-06-13 10:30 5.83 476 6940 (2007) 2 (1953) 398 4 6 20 31 86 320 400 900 1660
2024-06-13 09:30 5.86 484 6940 (2007) 2 (1953) 398 4 6 20 31 86 320 400 900 1660
2024-06-13 08:30 5.89 493 6940 (2007) 2 (1953) 398 4 6 20 31 86 320 400 900 1660
2024-06-13 07:30 5.93 505 6940 (2007) 2 (1953) 398 4 6 20 31 86 320 400 900 1660
2024-06-13 06:30 5.95 511 6940 (2007) 2 (1953) 398 4 6 20 31 86 320 400 900 1660
2024-06-13 05:30 5.96 514 6940 (2007) 2 (1953) 398 4 6 20 31 86 320 400 900 1660
2024-06-13 04:30 5.99 523 6940 (2007) 2 (1953) 398 4 6 20 31 86 320 400 900 1660
2024-06-13 03:30 6.02 533 6940 (2007) 2 (1953) 398 4 6 20 31 86 320 400 900 1660
2024-06-13 02:30 6.05 542 6940 (2007) 2 (1953) 398 4 6 20 31 86 320 400 900 1660
2024-06-13 01:30 6.08 551 6940 (2007) 2 (1953) 398 4 6 20 31 86 320 400 900 1660
2024-06-13 00:30 6.11 561 6940 (2007) 2 (1953) 398 4 6 20 31 86 320 400 900 1660
2024-06-12 23:30 6.14 570 6940 (2007) 2 (1953) 398 4 6 20 31 86 320 400 900 1660
2024-06-12 22:30 6.18 583 6800 (1995) 3 (2023) 511 4 7 23 33 87 377 495 1660 2350
2024-06-12 21:30 6.19 587 6800 (1995) 3 (2023) 511 4 7 23 33 87 377 495 1660 2350
2024-06-12 20:30 6.22 596 6800 (1995) 3 (2023) 511 4 7 23 33 87 377 495 1660 2350
2024-06-12 19:30 6.26 610 6800 (1995) 3 (2023) 511 4 7 23 33 87 377 495 1660 2350
2024-06-12 18:30 6.30 623 6800 (1995) 3 (2023) 511 4 7 23 33 87 377 495 1660 2350
2024-06-12 17:30 6.33 633 6800 (1995) 3 (2023) 511 4 7 23 33 87 377 495 1660 2350
2024-06-12 16:30 6.37 647 6800 (1995) 3 (2023) 511 4 7 23 33 87 377 495 1660 2350
2024-06-12 15:30 6.41 661 6800 (1995) 3 (2023) 511 4 7 23 33 87 377 495 1660 2350
2024-06-12 14:30 6.45 675 6800 (1995) 3 (2023) 511 4 7 23 33 87 377 495 1660 2350
2024-06-12 13:30 6.49 689 6800 (1995) 3 (2023) 511 4 7 23 33 87 377 495 1660 2350
2024-06-12 12:30 6.53 703 6800 (1995) 3 (2023) 511 4 7 23 33 87 377 495 1660 2350
2024-06-12 11:30 6.58 721 6800 (1995) 3 (2023) 511 4 7 23 33 87 377 495 1660 2350
2024-06-12 10:30 6.64 744 6800 (1995) 3 (2023) 511 4 7 23 33 87 377 495 1660 2350
2024-06-12 09:30 6.68 759 6800 (1995) 3 (2023) 511 4 7 23 33 87 377 495 1660 2350
2024-06-12 08:30 6.73 777 6800 (1995) 3 (2023) 511 4 7 23 33 87 377 495 1660 2350
2024-06-12 07:30 6.80 804 6800 (1995) 3 (2023) 511 4 7 23 33 87 377 495 1660 2350
2024-06-12 06:30 6.84 820 6800 (1995) 3 (2023) 511 4 7 23 33 87 377 495 1660 2350
2024-06-12 05:30 6.89 840 6800 (1995) 3 (2023) 511 4 7 23 33 87 377 495 1660 2350
2024-06-12 04:30 6.99 880 6800 (1995) 3 (2023) 511 4 7 23 33 87 377 495 1660 2350
2024-06-12 03:30 7.06 909 6800 (1995) 3 (2023) 511 4 7 23 33 87 377 495 1660 2350
2024-06-12 02:30 7.15 946 6800 (1995) 3 (2023) 511 4 7 23 33 87 377 495 1660 2350
2024-06-12 01:30 7.27 998 6800 (1995) 3 (2023) 511 4 7 23 33 87 377 495 1660 2350
2024-06-12 00:30 7.42 1060 6800 (1995) 3 (2023) 511 4 7 23 33 87 377 495 1660 2350
2024-06-11 23:30 7.61 1150 6800 (1995) 3 (2023) 511 4 7 23 33 87 377 495 1660 2350
2024-06-11 22:30 7.87 1280 10200 (1995) 3 (2023) 589 6 7 27 31 101 275 500 1350 4880
2024-06-11 21:30 8.22 1460 10200 (1995) 3 (2023) 589 6 7 27 31 101 275 500 1350 4880
2024-06-11 20:30 8.71 1710 10200 (1995) 3 (2023) 589 6 7 27 31 101 275 500 1350 4880
2024-06-11 19:30 9.40 2050 10200 (1995) 3 (2023) 589 6 7 27 31 101 275 500 1350 4880
2024-06-11 18:30 10.18 2470 10200 (1995) 3 (2023) 589 6 7 27 31 101 275 500 1350 4880
2024-06-11 17:30 11.13 2960 10200 (1995) 3 (2023) 589 6 7 27 31 101 275 500 1350 4880
2024-06-11 16:30 12.22 3560 10200 (1995) 3 (2023) 589 6 7 27 31 101 275 500 1350 4880
2024-06-11 15:30 13.45 4280 10200 (1995) 3 (2023) 589 6 7 27 31 101 275 500 1350 4880
2024-06-11 14:30 14.68 5050 10200 (1995) 3 (2023) 589 6 7 27 31 101 275 500 1350 4880
2024-06-11 13:30 15.80 5790 10200 (1995) 3 (2023) 589 6 7 27 31 101 275 500 1350 4880
2024-06-11 12:30 16.71 6410 10200 (1995) 3 (2023) 589 6 7 27 31 101 275 500 1350 4880
2024-06-11 11:30 17.36 6880 10200 (1995) 3 (2023) 589 6 7 27 31 101 275 500 1350 4880
2024-06-11 10:30 17.77 7180 10200 (1995) 3 (2023) 589 6 7 27 31 101 275 500 1350 4880
2024-06-11 09:30 18.12 7430 10200 (1995) 3 (2023) 589 6 7 27 31 101 275 500 1350 4880
2024-06-11 08:30 18.39 7640 10200 (1995) 3 (2023) 589 6 7 27 31 101 275 500 1350 4880
2024-06-11 07:30 18.62 7810 10200 (1995) 3 (2023) 589 6 7 27 31 101 275 500 1350 4880
2024-06-11 06:30 18.80 7950 10200 (1995) 3 (2023) 589 6 7 27 31 101 275 500 1350 4880
2024-06-11 05:30 18.96 8070 10200 (1995) 3 (2023) 589 6 7 27 31 101 275 500 1350 4880
2024-06-11 04:30 19.22 8250 10200 (1995) 3 (2023) 589 6 7 27 31 101 275 500 1350 4880
2024-06-11 03:30 19.38 8360 10200 (1995) 3 (2023) 589 6 7 27 31 101 275 500 1350 4880
2024-06-11 02:30 19.54 8470 10200 (1995) 3 (2023) 589 6 7 27 31 101 275 500 1350 4880
2024-06-11 01:30 19.69 8580 10200 (1995) 3 (2023) 589 6 7 27 31 101 275 500 1350 4880
2024-06-11 00:30 19.95 8760 10200 (1995) 3 (2023) 589 6 7 27 31 101 275 500 1350 4880
2024-06-10 23:30 20.13 8890 10200 (1995) 3 (2023) 589 6 7 27 31 101 275 500 1350 4880
2024-06-10 22:30 20.32 9020 8710 (1995) 3 (2023) 593 7 8 24 34 104 232 293 1310 4190
2024-06-10 21:30 20.53 9170 8710 (1995) 3 (2023) 593 7 8 24 34 104 232 293 1310 4190
2024-06-10 20:30 20.72 9310 8710 (1995) 3 (2023) 593 7 8 24 34 104 232 293 1310 4190
2024-06-10 19:30 20.85 9430 8710 (1995) 3 (2023) 593 7 8 24 34 104 232 293 1310 4190
2024-06-10 18:30 21.08 9650 8710 (1995) 3 (2023) 593 7 8 24 34 104 232 293 1310 4190
2024-06-10 17:30 21.27 9830 8710 (1995) 3 (2023) 593 7 8 24 34 104 232 293 1310 4190
2024-06-10 16:30 21.46 10000 8710 (1995) 3 (2023) 593 7 8 24 34 104 232 293 1310 4190
2024-06-10 15:30 21.63 10300 8710 (1995) 3 (2023) 593 7 8 24 34 104 232 293 1310 4190
2024-06-10 14:30 21.81 10500 8710 (1995) 3 (2023) 593 7 8 24 34 104 232 293 1310 4190
2024-06-10 13:30 21.98 10800 8710 (1995) 3 (2023) 593 7 8 24 34 104 232 293 1310 4190
2024-06-10 12:30 22.23 11100 8710 (1995) 3 (2023) 593 7 8 24 34 104 232 293 1310 4190
2024-06-10 11:30 22.48 11500 8710 (1995) 3 (2023) 593 7 8 24 34 104 232 293 1310 4190
2024-06-10 10:30 22.67 12000 8710 (1995) 3 (2023) 593 7 8 24 34 104 232 293 1310 4190
2024-06-10 09:30 22.94 13000 8710 (1995) 3 (2023) 593 7 8 24 34 104 232 293 1310 4190
2024-06-10 08:30 23.21 13900 8710 (1995) 3 (2023) 593 7 8 24 34 104 232 293 1310 4190
2024-06-10 07:30 23.45 14900 8710 (1995) 3 (2023) 593 7 8 24 34 104 232 293 1310 4190
2024-06-10 06:30 23.70 15900 8710 (1995) 3 (2023) 593 7 8 24 34 104 232 293 1310 4190
2024-06-10 05:30 23.99 17100 8710 (1995) 3 (2023) 593 7 8 24 34 104 232 293 1310 4190
2024-06-10 04:30 24.20 18000 8710 (1995) 3 (2023) 593 7 8 24 34 104 232 293 1310 4190
2024-06-10 03:30 24.40 19000 8710 (1995) 3 (2023) 593 7 8 24 34 104 232 293 1310 4190
2024-06-10 02:30 24.59 19900 8710 (1995) 3 (2023) 593 7 8 24 34 104 232 293 1310 4190
2024-06-10 01:30 24.70 20500 8710 (1995) 3 (2023) 593 7 8 24 34 104 232 293 1310 4190
2024-06-10 00:30 24.77 20800 8710 (1995) 3 (2023) 593 7 8 24 34 104 232 293 1310 4190
2024-06-09 23:30 24.75 20700 8710 (1995) 3 (2023) 593 7 8 24 34 104 232 293 1310 4190
2024-06-09 22:30 24.62 20100 5550 (1971) 2 (2006) 393 8 12 28 31 95 198 359 1030 2510
2024-06-09 21:30 24.48 19400 5550 (1971) 2 (2006) 393 8 12 28 31 95 198 359 1030 2510
2024-06-09 20:30 24.19 18000 5550 (1971) 2 (2006) 393 8 12 28 31 95 198 359 1030 2510
2024-06-09 19:30 23.78 16200 5550 (1971) 2 (2006) 393 8 12 28 31 95 198 359 1030 2510
2024-06-09 18:30 23.40 14700 5550 (1971) 2 (2006) 393 8 12 28 31 95 198 359 1030 2510
2024-06-09 17:30 23.19 13900 5550 (1971) 2 (2006) 393 8 12 28 31 95 198 359 1030 2510
2024-06-09 16:30 23.06 13400 5550 (1971) 2 (2006) 393 8 12 28 31 95 198 359 1030 2510
2024-06-09 15:30 23.01 13200 5550 (1971) 2 (2006) 393 8 12 28 31 95 198 359 1030 2510
2024-06-09 14:30 23.01 13200 5550 (1971) 2 (2006) 393 8 12 28 31 95 198 359 1030 2510
2024-06-09 13:30 23.00 13200 5550 (1971) 2 (2006) 393 8 12 28 31 95 198 359 1030 2510
2024-06-09 12:30 22.90 12800 5550 (1971) 2 (2006) 393 8 12 28 31 95 198 359 1030 2510
2024-06-09 11:30 22.60 11800 5550 (1971) 2 (2006) 393 8 12 28 31 95 198 359 1030 2510
2024-06-09 10:30 22.17 11000 5550 (1971) 2 (2006) 393 8 12 28 31 95 198 359 1030 2510
2024-06-09 09:30 21.21 9770 5550 (1971) 2 (2006) 393 8 12 28 31 95 198 359 1030 2510
2024-06-09 08:30 20.40 9080 5550 (1971) 2 (2006) 393 8 12 28 31 95 198 359 1030 2510
2024-06-09 07:30 19.63 8540 5550 (1971) 2 (2006) 393 8 12 28 31 95 198 359 1030 2510
2024-06-09 06:30 18.75 7910 5550 (1971) 2 (2006) 393 8 12 28 31 95 198 359 1030 2510
2024-06-09 05:30 17.44 6930 5550 (1971) 2 (2006) 393 8 12 28 31 95 198 359 1030 2510
2024-06-09 04:30 14.05 4650 5550 (1971) 2 (2006) 393 8 12 28 31 95 198 359 1030 2510
2024-06-09 03:30 11.08 2930 5550 (1971) 2 (2006) 393 8 12 28 31 95 198 359 1030 2510
2024-06-09 02:30 10.53 2650 5550 (1971) 2 (2006) 393 8 12 28 31 95 198 359 1030 2510
2024-06-09 01:30 10.31 2540 5550 (1971) 2 (2006) 393 8 12 28 31 95 198 359 1030 2510
2024-06-09 00:30 10.27 2520 5550 (1971) 2 (2006) 393 8 12 28 31 95 198 359 1030 2510
2024-06-08 23:30 10.31 2540 5550 (1971) 2 (2006) 393 8 12 28 31 95 198 359 1030 2510
2024-06-08 22:30 10.27 2520 2930 (1971) 1 (2006) 262 9 12 32 37 102 242 315 631 1200
2024-06-08 21:30 10.18 2470 2930 (1971) 1 (2006) 262 9 12 32 37 102 242 315 631 1200
2024-06-08 20:30 9.90 2320 2930 (1971) 1 (2006) 262 9 12 32 37 102 242 315 631 1200
2024-06-08 19:30 9.45 2080 2930 (1971) 1 (2006) 262 9 12 32 37 102 242 315 631 1200
2024-06-08 18:30 8.80 1750 2930 (1971) 1 (2006) 262 9 12 32 37 102 242 315 631 1200
2024-06-08 17:30 7.88 1280 2930 (1971) 1 (2006) 262 9 12 32 37 102 242 315 631 1200
2024-06-08 16:30 6.61 732 2930 (1971) 1 (2006) 262 9 12 32 37 102 242 315 631 1200
2024-06-08 15:30 5.65 425 2930 (1971) 1 (2006) 262 9 12 32 37 102 242 315 631 1200
2024-06-08 14:30 5.54 396 2930 (1971) 1 (2006) 262 9 12 32 37 102 242 315 631 1200
2024-06-08 13:30 5.63 420 2930 (1971) 1 (2006) 262 9 12 32 37 102 242 315 631 1200
2024-06-08 12:30 5.78 461 2930 (1971) 1 (2006) 262 9 12 32 37 102 242 315 631 1200
2024-06-08 11:30 5.92 502 2930 (1971) 1 (2006) 262 9 12 32 37 102 242 315 631 1200
2024-06-08 10:30 6.00 526 2930 (1971) 1 (2006) 262 9 12 32 37 102 242 315 631 1200
2024-06-08 09:30 5.99 523 2930 (1971) 1 (2006) 262 9 12 32 37 102 242 315 631 1200
2024-06-08 08:30 5.84 479 2930 (1971) 1 (2006) 262 9 12 32 37 102 242 315 631 1200
2024-06-08 07:30 5.50 385 2930 (1971) 1 (2006) 262 9 12 32 37 102 242 315 631 1200
2024-06-08 06:30 5.19 309 2930 (1971) 1 (2006) 262 9 12 32 37 102 242 315 631 1200
2024-06-08 05:30 5.03 274 2930 (1971) 1 (2006) 262 9 12 32 37 102 242 315 631 1200
2024-06-08 04:30 4.74 216 2930 (1971) 1 (2006) 262 9 12 32 37 102 242 315 631 1200
2024-06-08 03:30 4.66 201 2930 (1971) 1 (2006) 262 9 12 32 37 102 242 315 631 1200
2024-06-08 02:30 4.59 188 2930 (1971) 1 (2006) 262 9 12 32 37 102 242 315 631 1200
2024-06-08 01:30 4.61 192 2930 (1971) 1 (2006) 262 9 12 32 37 102 242 315 631 1200
2024-06-08 00:30 4.63 196 2930 (1971) 1 (2006) 262 9 12 32 37 102 242 315 631 1200
2024-06-07 23:30 4.65 199 2930 (1971) 1 (2006) 262 9 12 32 37 102 242 315 631 1200

A total of 168 rows are displayed for years 1923 through 2023.